Time;durP1;ratioP1;P1;durP2;ratioP2;P2;SDS_P1;SDS_P2;PMS_P1;PMS_P2;Temp;Humidity;BMP_temperature;BMP_pressure;BME280_temperature;BME280_humidity;BME280_pressure;Samples;Min_cycle;Max_cycle;Signal;HPM_P1;HPM_P2
2021/07/05 00:02:26;;;;;;;9.10;8.40;;;20.40;99.90;;;;;;5115434;28;20465;-80
2021/07/05 00:04:53;;;;;;;10.63;9.83;;;20.30;99.90;;;;;;5115015;28;20441;-80
2021/07/05 00:07:21;;;;;;;10.00;9.10;;;20.30;99.90;;;;;;5115127;27;20441;-79
2021/07/05 00:09:47;;;;;;;9.90;9.00;;;20.20;99.90;;;;;;5114637;28;20526;-79
2021/07/05 00:12:16;;;;;;;9.93;9.00;;;20.10;99.90;;;;;;5114319;28;20469;-79
2021/07/05 00:14:42;;;;;;;9.80;9.00;;;20.10;99.90;;;;;;5113859;27;20548;-79
2021/07/05 00:17:09;;;;;;;10.70;9.70;;;20.10;99.90;;;;;;5114443;28;20478;-79
2021/07/05 00:19:36;;;;;;;10.77;9.87;;;20.00;99.90;;;;;;5114200;28;20537;-79
2021/07/05 00:22:03;;;;;;;10.27;9.30;;;20.00;99.90;;;;;;5114210;28;20454;-79
2021/07/05 00:24:31;;;;;;;10.00;9.10;;;19.90;99.90;;;;;;5114006;28;20510;-79
2021/07/05 00:26:57;;;;;;;10.60;9.50;;;19.90;99.90;;;;;;5113991;28;20476;-79
2021/07/05 00:29:24;;;;;;;10.73;9.83;;;19.80;99.90;;;;;;5114178;28;20528;-80
2021/07/05 00:31:50;;;;;;;11.67;10.47;;;19.80;99.90;;;;;;5114004;28;20470;-81
2021/07/05 00:34:17;;;;;;;10.93;9.90;;;19.70;99.90;;;;;;5114001;28;20509;-81
2021/07/05 00:36:43;;;;;;;10.90;10.00;;;19.70;99.90;;;;;;5103719;28;20961;-81
2021/07/05 00:39:10;;;;;;;12.60;11.40;;;19.70;99.90;;;;;;5113909;28;20484;-80
2021/07/05 00:41:38;;;;;;;12.00;10.90;;;19.70;99.90;;;;;;5113588;28;20529;-81
2021/07/05 00:44:05;;;;;;;10.43;9.50;;;19.70;99.90;;;;;;5114011;28;20446;-82
2021/07/05 00:46:32;;;;;;;9.50;8.70;;;19.70;99.90;;;;;;5113791;28;20804;-82
2021/07/05 00:48:58;;;;;;;12.70;11.50;;;19.70;99.90;;;;;;5113803;28;20474;-82
2021/07/05 00:51:26;;;;;;;12.40;11.50;;;19.70;99.90;;;;;;5113573;28;20478;-80
2021/07/05 00:53:54;;;;;;;10.43;9.70;;;19.70;99.90;;;;;;5112632;28;20516;-80
2021/07/05 00:56:22;;;;;;;11.53;10.60;;;19.70;99.90;;;;;;5113464;28;20480;-81
2021/07/05 00:58:50;;;;;;;11.27;10.37;;;19.60;99.90;;;;;;5113484;28;20449;-80
2021/07/05 01:01:17;;;;;;;10.77;9.77;;;19.60;99.90;;;;;;5113558;28;20550;-80
2021/07/05 01:03:44;;;;;;;11.57;10.67;;;19.70;99.90;;;;;;5113440;28;20520;-78
2021/07/05 01:06:10;;;;;;;10.73;9.93;;;19.60;99.90;;;;;;5113380;28;20484;-79
2021/07/05 01:08:37;;;;;;;10.50;9.60;;;19.60;99.90;;;;;;5113049;28;20477;-80
2021/07/05 01:11:04;;;;;;;11.70;10.73;;;19.60;99.90;;;;;;5113491;28;20777;-80
2021/07/05 01:13:30;;;;;;;11.73;10.73;;;19.60;99.90;;;;;;5113217;28;20546;-79
2021/07/05 01:15:58;;;;;;;11.23;10.13;;;19.50;99.90;;;;;;5113007;28;20472;-79
2021/07/05 01:18:26;;;;;;;11.53;10.53;;;19.50;99.90;;;;;;5113363;28;20530;-79
2021/07/05 01:20:52;;;;;;;10.90;10.03;;;19.50;99.90;;;;;;5113278;28;20479;-79
2021/07/05 01:23:20;;;;;;;11.77;10.87;;;19.50;99.90;;;;;;5113104;28;20469;-79
2021/07/05 01:25:47;;;;;;;10.77;9.97;;;19.40;99.90;;;;;;5112824;28;20936;-79
2021/07/05 01:28:13;;;;;;;11.17;10.27;;;19.40;99.90;;;;;;5113228;28;20499;-79
2021/07/05 01:30:41;;;;;;;12.50;11.40;;;19.30;99.90;;;;;;5112878;28;20499;-79
2021/07/05 01:33:09;;;;;;;12.07;11.07;;;19.30;99.90;;;;;;5112845;28;20990;-79
2021/07/05 01:35:36;;;;;;;12.30;11.30;;;19.20;99.90;;;;;;5102602;28;20918;-80
2021/07/05 01:38:08;;;;;;;12.03;10.93;;;19.20;99.90;;;;;;5112899;28;21074;-80
2021/07/05 01:40:37;;;;;;;11.57;10.47;;;19.10;99.90;;;;;;5112767;28;21005;-80
2021/07/05 01:43:04;;;;;;;11.90;11.00;;;19.10;99.90;;;;;;5112984;28;20476;-80
2021/07/05 01:45:33;;;;;;;11.77;10.87;;;19.10;99.90;;;;;;5112873;28;20864;-80
2021/07/05 01:48:01;;;;;;;12.50;11.50;;;19.10;99.90;;;;;;5096229;28;20492;-80
2021/07/05 01:50:29;;;;;;;12.83;11.87;;;19.00;99.90;;;;;;5112522;28;20469;-80
2021/07/05 01:52:56;;;;;;;13.03;11.83;;;18.90;99.90;;;;;;5111703;28;20488;-80
2021/07/05 01:55:29;;;;;;;12.57;11.50;;;18.90;99.90;;;;;;5112917;28;20442;-80
2021/07/05 01:57:57;;;;;;;12.93;11.93;;;18.80;99.90;;;;;;5112885;28;20914;-79
2021/07/05 02:00:25;;;;;;;12.67;11.57;;;18.80;99.90;;;;;;5112712;28;20470;-79
2021/07/05 02:02:53;;;;;;;13.70;12.40;;;18.80;99.90;;;;;;5112526;28;20937;-80
2021/07/05 02:05:20;;;;;;;12.40;11.40;;;18.70;99.90;;;;;;5116074;28;20441;-80
2021/07/05 02:07:47;;;;;;;13.60;12.40;;;18.70;99.90;;;;;;5116767;28;20512;-79
2021/07/05 02:10:17;;;;;;;13.73;12.50;;;18.70;99.90;;;;;;5116799;28;20448;-80
2021/07/05 02:12:44;;;;;;;13.83;12.43;;;18.70;99.90;;;;;;5116388;28;20465;-80
2021/07/05 02:15:14;;;;;;;14.00;12.80;;;18.70;99.90;;;;;;5116580;28;20445;-80
2021/07/05 02:17:41;;;;;;;13.90;12.90;;;18.60;99.90;;;;;;5116371;28;20955;-80
2021/07/05 02:20:10;;;;;;;14.67;13.40;;;18.60;99.90;;;;;;5116678;28;20477;-80
2021/07/05 02:22:36;;;;;;;14.03;12.83;;;18.60;99.90;;;;;;5116454;28;20481;-80
2021/07/05 02:25:07;;;;;;;13.37;12.37;;;18.50;99.90;;;;;;5116650;28;20481;-80
2021/07/05 02:27:34;;;;;;;13.83;12.63;;;18.50;99.90;;;;;;5116376;28;20454;-80
2021/07/05 02:30:00;;;;;;;14.30;13.10;;;18.40;99.90;;;;;;5099513;28;20502;-79
2021/07/05 02:32:28;;;;;;;14.07;12.77;;;18.40;99.90;;;;;;5116291;27;20505;-80
2021/07/05 02:34:55;;;;;;;14.67;13.20;;;18.40;99.90;;;;;;5111628;28;20485;-79
2021/07/05 02:37:22;;;;;;;13.43;12.33;;;18.40;99.90;;;;;;5111107;28;20473;-79
2021/07/05 02:39:49;;;;;;;14.97;13.57;;;18.40;99.90;;;;;;5116224;28;20446;-79
2021/07/05 02:42:15;;;;;;;13.97;12.80;;;18.30;99.90;;;;;;5116131;28;20835;-80
2021/07/05 02:44:42;;;;;;;14.60;13.50;;;18.30;99.90;;;;;;5115905;28;20503;-81
2021/07/05 02:47:08;;;;;;;14.13;12.93;;;18.30;99.90;;;;;;5116221;28;20533;-81
2021/07/05 02:49:36;;;;;;;14.67;13.47;;;18.30;99.90;;;;;;5116081;27;20484;-81
2021/07/05 02:52:03;;;;;;;14.27;13.07;;;18.30;99.90;;;;;;5116177;28;20446;-81
2021/07/05 02:54:30;;;;;;;15.57;14.17;;;18.30;99.90;;;;;;5115618;27;20509;-81
2021/07/05 02:56:57;;;;;;;14.80;13.57;;;18.30;99.90;;;;;;5115785;28;20481;-80
2021/07/05 02:59:23;;;;;;;14.90;13.80;;;18.30;99.90;;;;;;5115582;28;20542;-80
2021/07/05 03:01:50;;;;;;;14.33;13.20;;;18.30;99.90;;;;;;5115874;28;20446;-80
2021/07/05 03:04:16;;;;;;;15.00;13.80;;;18.30;99.90;;;;;;5115785;28;20470;-80
2021/07/05 03:06:44;;;;;;;14.77;13.57;;;18.40;99.90;;;;;;5115660;28;20472;-80
2021/07/05 03:09:11;;;;;;;14.97;13.67;;;18.40;99.90;;;;;;5115634;28;20494;-80
2021/07/05 03:11:37;;;;;;;14.87;13.53;;;18.40;99.90;;;;;;5115340;28;20469;-80
2021/07/05 03:14:04;;;;;;;16.07;14.60;;;18.50;99.90;;;;;;5115267;28;20513;-81
2021/07/05 03:16:31;;;;;;;14.03;12.93;;;18.50;99.90;;;;;;5114569;28;20442;-80
2021/07/05 03:18:57;;;;;;;14.53;13.43;;;18.60;99.90;;;;;;5115479;28;20518;-80
2021/07/05 03:21:24;;;;;;;16.07;14.50;;;18.70;99.90;;;;;;5115626;28;20450;-81
2021/07/05 03:23:52;;;;;;;16.40;14.97;;;18.80;99.90;;;;;;5115076;28;20449;-81
2021/07/05 03:26:18;;;;;;;15.50;14.13;;;18.80;99.90;;;;;;5115207;28;20499;-81
2021/07/05 03:28:45;;;;;;;14.67;13.47;;;18.90;99.90;;;;;;5115170;28;20446;-81
2021/07/05 03:31:11;;;;;;;15.03;13.73;;;18.90;99.90;;;;;;5115337;28;20450;-80
2021/07/05 03:33:38;;;;;;;14.50;13.27;;;19.00;99.90;;;;;;5115022;28;20508;-80
2021/07/05 03:36:05;;;;;;;14.77;13.53;;;19.10;99.90;;;;;;5105029;28;20867;-81
2021/07/05 03:38:31;;;;;;;14.03;12.93;;;19.20;99.90;;;;;;5114899;28;20817;-80
2021/07/05 03:40:59;;;;;;;14.70;13.33;;;19.30;99.90;;;;;;5114834;28;20872;-80
2021/07/05 03:43:26;;;;;;;15.90;14.50;;;19.40;99.90;;;;;;5115094;28;20530;-80
2021/07/05 03:45:52;;;;;;;15.20;13.87;;;19.50;99.90;;;;;;5114961;28;20481;-80
2021/07/05 03:48:19;;;;;;;15.00;13.87;;;19.60;99.90;;;;;;5114900;28;20491;-80
2021/07/05 03:50:45;;;;;;;15.43;13.67;;;19.70;99.90;;;;;;5114813;28;20524;-79
2021/07/05 03:53:12;;;;;;;15.73;14.40;;;19.70;99.90;;;;;;5114590;28;20552;-79
2021/07/05 03:55:39;;;;;;;16.97;15.17;;;19.80;99.90;;;;;;5114630;28;20944;-79
2021/07/05 03:58:08;;;;;;;14.83;13.53;;;19.90;99.90;;;;;;5114915;28;20477;-80
2021/07/05 04:00:37;;;;;;;13.23;12.13;;;19.90;99.90;;;;;;5114568;28;20486;-80
2021/07/05 04:03:05;;;;;;;14.77;13.57;;;20.00;99.90;;;;;;5114650;28;20940;-80
2021/07/05 04:05:32;;;;;;;14.83;13.63;;;20.10;99.90;;;;;;5114457;28;20528;-79
2021/07/05 04:08:00;;;;;;;13.30;12.20;;;20.20;99.90;;;;;;5097556;28;20804;-79
2021/07/05 04:10:27;;;;;;;14.30;13.27;;;20.30;99.90;;;;;;5114508;28;20500;-79
2021/07/05 04:12:54;;;;;;;14.03;12.90;;;20.40;99.90;;;;;;5114248;28;20503;-80
2021/07/05 04:15:22;;;;;;;13.33;12.23;;;20.40;99.90;;;;;;5114439;28;20488;-80
2021/07/05 04:17:49;;;;;;;13.87;12.67;;;20.50;99.90;;;;;;5114310;28;20529;-80
2021/07/05 04:20:18;;;;;;;12.87;11.87;;;20.70;99.90;;;;;;5114150;28;20855;-80
2021/07/05 04:22:45;;;;;;;13.70;12.60;;;20.70;99.90;;;;;;5114075;28;20964;-79
2021/07/05 04:25:14;;;;;;;13.10;12.10;;;20.80;99.90;;;;;;5114300;28;20473;-80
2021/07/05 04:27:41;;;;;;;13.07;12.07;;;20.90;99.90;;;;;;5113480;28;20895;-80
2021/07/05 04:30:09;;;;;;;13.40;12.30;;;20.90;99.90;;;;;;5114023;28;20477;-79
2021/07/05 04:32:37;;;;;;;14.77;13.47;;;21.00;99.90;;;;;;5114085;28;20521;-79
2021/07/05 04:35:07;;;;;;;13.40;12.30;;;21.00;99.90;;;;;;5107756;28;20481;-80
2021/07/05 04:37:34;;;;;;;13.87;12.77;;;21.00;99.90;;;;;;5110521;28;20453;-80
2021/07/05 04:40:00;;;;;;;14.10;13.00;;;21.00;99.90;;;;;;5097257;28;20465;-80
2021/07/05 04:42:27;;;;;;;12.97;11.87;;;21.00;99.90;;;;;;5113704;28;20442;-81
2021/07/05 04:44:53;;;;;;;13.03;11.73;;;21.00;99.90;;;;;;5113726;28;20932;-80
2021/07/05 04:47:20;;;;;;;12.23;11.33;;;21.00;99.90;;;;;;5113543;28;20932;-80
2021/07/05 04:49:48;;;;;;;12.83;11.73;;;21.10;99.90;;;;;;5113529;28;20536;-81
2021/07/05 04:52:15;;;;;;;13.37;12.20;;;21.20;99.90;;;;;;5113860;28;20479;-81
2021/07/05 04:54:41;;;;;;;12.20;11.00;;;21.20;99.90;;;;;;5113555;28;20509;-81
2021/07/05 04:57:10;;;;;;;13.53;12.33;;;21.30;99.90;;;;;;5113702;28;20498;-80
2021/07/05 04:59:37;;;;;;;12.70;11.57;;;21.40;99.90;;;;;;5113299;28;20940;-80
2021/07/05 05:02:04;;;;;;;11.00;10.20;;;21.40;99.90;;;;;;5113684;28;20511;-81
2021/07/05 05:04:31;;;;;;;13.10;12.03;;;21.50;99.90;;;;;;5113476;28;20510;-81
2021/07/05 05:06:59;;;;;;;11.47;10.47;;;21.50;99.90;;;;;;5113613;28;20503;-81
2021/07/05 05:09:25;;;;;;;14.07;12.87;;;21.50;99.90;;;;;;5113378;28;20469;-81
2021/07/05 05:11:52;;;;;;;12.53;11.60;;;21.60;99.90;;;;;;5113182;28;20928;-81
2021/07/05 05:14:19;;;;;;;11.73;10.73;;;21.60;99.90;;;;;;5112970;28;20485;-81
2021/07/05 05:16:46;;;;;;;12.33;11.33;;;21.70;99.90;;;;;;5113118;28;21152;-81
2021/07/05 05:19:15;;;;;;;11.63;10.73;;;21.70;99.90;;;;;;5113110;28;21043;-80
2021/07/05 05:21:41;;;;;;;12.23;11.23;;;21.80;99.90;;;;;;5113317;28;20467;-81
2021/07/05 05:24:09;;;;;;;12.40;11.43;;;22.00;99.90;;;;;;5113266;28;20446;-80
2021/07/05 05:26:36;;;;;;;12.30;11.30;;;22.10;99.90;;;;;;5113124;28;20470;-79
2021/07/05 05:29:03;;;;;;;11.50;10.30;;;22.30;99.90;;;;;;5113073;28;20498;-80
2021/07/05 05:31:31;;;;;;;10.90;10.10;;;22.50;99.90;;;;;;5113296;28;20466;-79
2021/07/05 05:33:57;;;;;;;11.47;10.63;;;22.70;99.90;;;;;;5113036;28;20477;-79
2021/07/05 05:36:24;;;;;;;10.60;9.90;;;23.00;99.90;;;;;;5102786;28;20948;-80
2021/07/05 05:38:50;;;;;;;9.83;9.13;;;23.20;99.90;;;;;;5112351;28;20960;-80
2021/07/05 05:41:20;;;;;;;11.37;10.37;;;23.40;99.90;;;;;;5112863;28;20498;-80
2021/07/05 05:43:47;;;;;;;10.70;9.80;;;23.60;99.90;;;;;;5113004;28;20485;-80
2021/07/05 05:46:17;;;;;;;11.10;10.30;;;23.90;99.90;;;;;;5112874;28;20461;-79
2021/07/05 05:48:44;;;;;;;13.53;11.37;;;24.10;99.90;;;;;;5113013;28;20506;-79
2021/07/05 05:51:11;;;;;;;10.90;10.00;;;24.30;99.90;;;;;;5112752;28;20444;-81
2021/07/05 05:53:38;;;;;;;11.37;10.47;;;24.40;99.90;;;;;;5112780;28;20469;-81
2021/07/05 05:56:05;;;;;;;10.57;9.77;;;24.50;99.90;;;;;;5112610;28;20473;-82
2021/07/05 05:58:37;;;;;;;11.37;10.50;;;24.40;99.90;;;;;;5112707;28;20441;-81
2021/07/05 06:01:04;;;;;;;11.37;10.50;;;24.50;99.90;;;;;;5112786;28;20442;-79
2021/07/05 06:03:30;;;;;;;11.90;10.93;;;24.60;99.90;;;;;;5112743;28;20486;-79
2021/07/05 06:05:57;;;;;;;12.20;11.20;;;24.90;99.90;;;;;;5112651;28;20503;-81
2021/07/05 06:08:24;;;;;;;11.97;10.90;;;25.20;99.90;;;;;;5112858;28;20566;-81
2021/07/05 06:10:50;;;;;;;13.20;11.87;;;25.50;99.90;;;;;;5112417;28;20564;-81
2021/07/05 06:13:17;;;;;;;10.10;9.40;;;25.70;99.90;;;;;;5112458;28;20549;-81
2021/07/05 06:15:45;;;;;;;9.97;9.17;;;25.80;99.90;;;;;;5112736;28;20446;-80
2021/07/05 06:18:11;;;;;;;9.27;8.67;;;26.00;99.90;;;;;;5112710;28;20473;-81
2021/07/05 06:20:39;;;;;;;11.70;10.60;;;26.20;99.90;;;;;;5109497;28;20442;-80
2021/07/05 06:23:13;;;;;;;10.80;9.90;;;26.30;99.90;;;;;;5111817;28;20441;-80
2021/07/05 06:25:40;;;;;;;10.70;9.80;;;26.30;99.90;;;;;;5111312;28;20540;-81
2021/07/05 06:28:06;;;;;;;11.00;10.20;;;26.60;99.90;;;;;;5111927;28;20469;-80
2021/07/05 06:30:33;;;;;;;10.93;9.80;;;26.80;99.90;;;;;;5111711;28;20491;-80
2021/07/05 06:33:01;;;;;;;10.20;9.40;;;27.00;99.90;;;;;;5110147;28;20542;-80
2021/07/05 06:35:27;;;;;;;10.27;9.40;;;27.40;99.90;;;;;;5108748;28;20526;-82
2021/07/05 06:37:54;;;;;;;10.40;9.40;;;27.70;99.90;;;;;;5108544;28;20485;-82
2021/07/05 06:40:21;;;;;;;8.90;8.30;;;28.20;99.90;;;;;;5110347;28;20999;-82
2021/07/05 06:42:47;;;;;;;10.80;9.90;;;28.40;99.90;;;;;;5101713;28;20446;-82
2021/07/05 06:45:14;;;;;;;9.70;8.90;;;28.50;99.90;;;;;;5110885;28;20500;-82
2021/07/05 06:47:40;;;;;;;9.67;8.67;;;28.60;99.90;;;;;;5112143;28;20972;-82
2021/07/05 06:50:09;;;;;;;8.67;7.97;;;28.40;99.90;;;;;;5112161;28;20528;-82
2021/07/05 06:52:36;;;;;;;8.03;7.53;;;28.40;99.90;;;;;;5115374;28;20476;-81
2021/07/05 06:55:04;;;;;;;8.00;7.40;;;28.30;99.90;;;;;;5115544;27;20473;-82
2021/07/05 06:57:32;;;;;;;7.40;6.80;;;28.30;99.90;;;;;;5115963;28;20442;-82
2021/07/05 07:00:00;;;;;;;8.40;7.70;;;28.40;99.90;;;;;;5098865;28;20473;-82
2021/07/05 07:02:27;;;;;;;6.83;6.33;;;28.60;99.90;;;;;;5115674;28;20503;-82
2021/07/05 07:04:54;;;;;;;7.60;7.00;;;28.80;99.90;;;;;;5115390;28;20481;-82
2021/07/05 07:07:22;;;;;;;7.10;6.60;;;28.80;99.90;;;;;;5115781;28;20469;-83
2021/07/05 07:09:48;;;;;;;7.47;6.67;;;29.00;99.90;;;;;;5115512;28;20450;-81
2021/07/05 07:12:15;;;;;;;6.57;6.17;;;28.90;99.90;;;;;;5115452;28;20868;-80
2021/07/05 07:14:42;;;;;;;7.07;6.43;;;28.70;99.90;;;;;;5115226;28;20485;-80
2021/07/05 07:17:14;;;;;;;7.67;6.73;;;28.60;99.90;;;;;;5115435;28;20445;-83
2021/07/05 07:19:41;;;;;;;6.80;6.20;;;28.30;99.90;;;;;;5115282;28;20525;-83
2021/07/05 07:22:08;;;;;;;6.30;5.90;;;28.00;99.90;;;;;;5115473;27;20999;-83
2021/07/05 07:24:36;;;;;;;6.90;6.30;;;27.80;99.90;;;;;;5114624;28;20473;-83
2021/07/05 07:27:03;;;;;;;6.20;5.60;;;27.20;99.90;;;;;;5114574;28;20449;-83
2021/07/05 07:29:29;;;;;;;14.40;6.30;;;26.80;99.90;;;;;;5114455;28;20454;-82
2021/07/05 07:31:56;;;;;;;6.20;5.67;;;26.30;99.90;;;;;;5114846;28;20483;-80
2021/07/05 07:34:23;;;;;;;6.00;5.50;;;26.00;99.90;;;;;;5114929;28;20531;-80
2021/07/05 07:36:50;;;;;;;5.90;5.50;;;25.70;99.90;;;;;;5105252;28;20446;-80
2021/07/05 07:39:19;;;;;;;6.33;5.83;;;25.50;99.90;;;;;;5115237;28;20476;-81
2021/07/05 07:41:47;;;;;;;6.70;6.20;;;25.30;99.90;;;;;;5114893;28;20445;-81
2021/07/05 07:44:14;;;;;;;6.27;5.87;;;25.10;99.90;;;;;;5114937;28;20529;-81
2021/07/05 07:46:43;;;;;;;8.40;6.50;;;25.00;99.90;;;;;;5114004;28;20480;-81
2021/07/05 07:49:09;;;;;;;6.30;5.70;;;25.00;99.90;;;;;;5114091;28;20446;-81
2021/07/05 07:51:36;;;;;;;6.67;6.07;;;25.10;99.90;;;;;;5114289;28;20471;-81
2021/07/05 07:54:03;;;;;;;5.87;5.37;;;25.10;99.90;;;;;;5114195;27;20964;-81
2021/07/05 07:56:30;;;;;;;6.80;5.80;;;25.10;99.90;;;;;;5113352;28;20454;-85
2021/07/05 07:59:01;;;;;;;5.60;5.17;;;25.20;99.90;;;;;;5113406;28;20446;-84
2021/07/05 08:01:28;;;;;;;5.37;5.07;;;25.10;99.90;;;;;;5112919;28;20438;-84
2021/07/05 08:03:55;;;;;;;5.37;4.97;;;25.10;99.90;;;;;;5113218;28;20945;-84
2021/07/05 08:06:25;;;;;;;4.80;4.50;;;25.10;99.90;;;;;;5113311;28;20933;-83
2021/07/05 08:08:53;;;;;;;6.03;4.90;;;25.10;99.90;;;;;;5111628;28;20510;-83
2021/07/05 08:11:20;;;;;;;5.10;4.73;;;25.00;99.90;;;;;;5113919;28;20473;-84
2021/07/05 08:13:46;;;;;;;5.37;5.00;;;24.80;99.90;;;;;;5106718;28;20505;-83
2021/07/05 08:16:15;;;;;;;5.50;5.00;;;24.70;99.90;;;;;;5112828;28;20560;-83
2021/07/05 08:18:46;;;;;;;4.93;4.63;;;24.50;99.90;;;;;;5113816;28;20455;-83
2021/07/05 08:21:41;;;;;;;5.73;5.23;;;24.20;99.90;;;;;;5113925;28;20477;-83
2021/07/05 08:24:10;;;;;;;6.63;6.13;;;23.80;99.90;;;;;;5111072;28;20452;-84
2021/07/05 08:26:37;;;;;;;6.70;6.10;;;23.40;99.90;;;;;;5113753;28;20473;-83
2021/07/05 08:29:04;;;;;;;9.57;6.93;;;23.10;99.90;;;;;;5113653;28;20467;-82
2021/07/05 08:31:32;;;;;;;7.50;6.70;;;22.70;99.90;;;;;;5113487;28;21003;-84
2021/07/05 08:34:00;;;;;;;6.97;6.27;;;22.50;99.90;;;;;;5112754;28;20480;-79
2021/07/05 08:36:27;;;;;;;6.47;5.87;;;22.20;99.90;;;;;;5111701;28;20484;-79
2021/07/05 08:38:55;;;;;;;7.13;6.60;;;21.90;99.90;;;;;;5112723;28;20442;-80
2021/07/05 08:41:21;;;;;;;5.53;5.13;;;21.80;99.90;;;;;;5113100;28;20503;-80
2021/07/05 08:43:50;;;;;;;5.83;5.37;;;21.60;99.90;;;;;;5113080;28;20498;-79
2021/07/05 08:46:20;;;;;;;6.10;5.70;;;21.40;99.90;;;;;;5112536;28;20891;-79
2021/07/05 08:48:49;;;;;;;5.23;4.67;;;21.30;99.90;;;;;;5113107;28;20472;-79
2021/07/05 08:51:18;;;;;;;5.43;5.00;;;21.30;99.90;;;;;;5112713;28;20516;-81
2021/07/05 08:53:46;;;;;;;6.47;5.87;;;21.20;99.90;;;;;;5112963;28;20442;-81
2021/07/05 08:56:13;;;;;;;5.73;5.33;;;21.20;99.90;;;;;;5112886;28;20512;-81
2021/07/05 08:58:41;;;;;;;6.53;5.93;;;21.30;99.90;;;;;;5113131;27;20493;-81
2021/07/05 09:01:09;;;;;;;5.93;5.50;;;21.40;99.90;;;;;;5111259;28;20841;-81
2021/07/05 09:03:38;;;;;;;6.67;6.07;;;21.40;99.90;;;;;;5109634;28;20442;-80
2021/07/05 09:06:12;;;;;;;8.80;6.27;;;21.40;99.90;;;;;;5112815;28;20477;-79
2021/07/05 09:08:40;;;;;;;6.30;5.90;;;21.50;99.90;;;;;;5110075;28;20940;-79
2021/07/05 09:11:09;;;;;;;6.50;6.00;;;21.50;99.90;;;;;;5112333;28;20438;-79
2021/07/05 09:13:46;;;;;;;6.57;6.03;;;21.60;99.90;;;;;;5107526;28;20497;-79
2021/07/05 09:16:13;;;;;;;6.47;5.97;;;21.80;99.90;;;;;;5109038;28;20519;-79
2021/07/05 09:18:44;;;;;;;7.23;6.63;;;21.90;99.90;;;;;;5112297;28;20473;-79
2021/07/05 09:21:18;;;;;;;7.37;6.67;;;21.90;99.90;;;;;;5112322;28;20446;-79
2021/07/05 09:23:53;;;;;;;8.60;7.77;;;22.00;99.90;;;;;;5110038;28;20437;-79
2021/07/05 09:26:21;;;;;;;6.53;5.97;;;22.10;99.90;;;;;;5111822;28;20501;-79
2021/07/05 09:28:50;;;;;;;7.23;6.53;;;22.10;99.90;;;;;;5112086;28;20545;-82
2021/07/05 09:31:32;;;;;;;7.03;6.53;;;22.10;99.90;;;;;;5111942;28;20434;-81
2021/07/05 09:33:59;;;;;;;9.00;8.10;;;22.10;99.90;;;;;;5111907;28;20442;-81
2021/07/05 09:36:27;;;;;;;8.50;7.70;;;22.00;99.90;;;;;;5112129;28;20542;-80
2021/07/05 09:38:55;;;;;;;10.70;8.50;;;22.00;99.90;;;;;;5112375;28;20839;-79
2021/07/05 09:41:24;;;;;;;9.20;8.40;;;22.00;99.90;;;;;;5112419;28;20499;-80
2021/07/05 09:43:55;;;;;;;12.33;8.70;;;22.00;99.90;;;;;;5109559;28;20529;-80
2021/07/05 09:46:42;;;;;;;10.40;8.67;;;22.00;99.90;;;;;;5112081;28;20931;-79
2021/07/05 09:49:12;;;;;;;14.10;10.80;;;22.10;99.90;;;;;;5112523;28;20449;-80
2021/07/05 09:51:41;;;;;;;9.73;8.80;;;22.10;99.90;;;;;;5112328;28;20545;-80
2021/07/05 09:54:09;;;;;;;11.10;10.10;;;22.10;99.90;;;;;;5112654;28;20438;-80
2021/07/05 09:56:36;;;;;;;10.13;9.23;;;22.10;99.90;;;;;;5112771;28;21027;-80
2021/07/05 09:59:15;;;;;;;10.70;9.70;;;22.30;99.90;;;;;;5112605;28;20502;-81
2021/07/05 10:01:44;;;;;;;10.00;9.20;;;22.50;99.90;;;;;;5112658;28;20480;-82
2021/07/05 10:04:13;;;;;;;10.07;8.70;;;22.70;99.90;;;;;;5112310;28;20541;-82
2021/07/05 10:06:42;;;;;;;9.73;8.77;;;22.80;99.90;;;;;;5112718;28;20452;-82
2021/07/05 10:09:10;;;;;;;10.07;9.17;;;23.00;99.90;;;;;;5106957;28;20442;-82
2021/07/05 10:11:38;;;;;;;7.93;7.23;;;23.20;99.90;;;;;;5109062;28;20477;-86
2021/07/05 10:14:13;;;;;;;8.77;7.90;;;23.60;99.90;;;;;;5111314;28;20477;-81
2021/07/05 10:16:41;;;;;;;7.33;6.80;;;23.90;99.90;;;;;;5108658;28;20572;-81
2021/07/05 10:19:08;;;;;;;9.00;8.20;;;24.20;99.90;;;;;;5110021;28;20481;-81
2021/07/05 10:21:36;;;;;;;7.47;6.87;;;24.40;99.90;;;;;;5106615;28;20437;-80
2021/07/05 10:24:06;;;;;;;7.93;7.33;;;24.50;99.90;;;;;;5109880;28;20473;-82
2021/07/05 10:26:33;;;;;;;6.47;5.97;;;24.70;99.90;;;;;;5113683;28;20437;-80
2021/07/05 10:29:00;;;;;;;8.67;8.07;;;24.90;99.90;;;;;;5115581;28;20463;-81
2021/07/05 10:31:27;;;;;;;6.93;6.43;;;25.30;99.90;;;;;;5115665;28;20473;-82
2021/07/05 10:33:58;;;;;;;6.47;6.00;;;25.70;99.90;;;;;;5115910;28;20438;-82
2021/07/05 10:36:26;;;;;;;6.40;6.00;;;26.00;99.90;;;;;;5111031;28;20514;-82
2021/07/05 10:38:56;;;;;;;5.47;5.10;;;26.30;99.90;;;;;;5115044;28;20481;-82
2021/07/05 10:41:34;;;;;;;5.90;5.40;;;26.50;99.90;;;;;;5115959;28;20446;-81
2021/07/05 10:44:04;;;;;;;5.83;5.43;;;26.60;99.90;;;;;;5115585;28;20465;-81
2021/07/05 10:46:43;;;;;;;5.73;5.23;;;26.70;99.90;;;;;;5115781;28;20470;-81
2021/07/05 10:49:45;;;;;;;5.93;5.53;;;26.80;99.90;;;;;;5105808;28;20467;-80
2021/07/05 10:52:16;;;;;;;4.53;4.23;;;26.70;99.90;;;;;;5112746;28;21012;-80
2021/07/05 10:54:44;;;;;;;4.83;4.53;;;26.60;99.90;;;;;;5115070;28;21959;-81
2021/07/05 10:57:14;;;;;;;5.03;4.63;;;26.60;99.90;;;;;;5113201;28;20450;-81
2021/07/05 10:59:43;;;;;;;4.30;4.10;;;26.40;99.90;;;;;;5115279;27;20442;-80
2021/07/05 11:02:40;;;;;;;5.13;4.73;;;26.40;99.90;;;;;;5113914;28;20437;-80
2021/07/05 11:05:29;;;;;;;6.17;5.00;;;26.30;99.90;;;;;;5115457;28;20442;-80
2021/07/05 11:07:58;;;;;;;5.10;4.67;;;26.30;99.90;;;;;;5114316;28;20499;-80
2021/07/05 11:10:31;;;;;;;5.20;4.80;;;26.50;99.90;;;;;;5114591;28;20469;-79
2021/07/05 11:12:59;;;;;;;4.70;4.40;;;26.50;99.90;;;;;;5114641;28;20455;-80
2021/07/05 11:15:49;;;;;;;5.10;4.80;;;26.50;99.90;;;;;;5112214;28;20513;-80
2021/07/05 11:19:08;;;;;;;5.53;5.03;;;26.50;99.90;;;;;;5114505;28;20499;-80
2021/07/05 11:21:55;;;;;;;5.63;5.23;;;26.50;99.90;;;;;;5115221;28;20433;-80
2021/07/05 11:24:39;;;;;;;5.43;5.07;;;26.40;99.90;;;;;;5104516;28;20477;-80
2021/07/05 11:27:30;;;;;;;6.03;4.90;;;26.30;99.90;;;;;;5114915;28;20507;-80
2021/07/05 11:30:14;;;;;;;4.53;4.23;;;26.30;99.90;;;;;;5114585;28;20525;-81
2021/07/05 11:32:44;;;;;;;4.97;4.50;;;26.40;99.90;;;;;;5114995;28;20481;-81
2021/07/05 11:35:38;;;;;;;4.47;4.20;;;26.60;99.90;;;;;;5114810;28;20438;-81
2021/07/05 11:38:08;;;;;;;4.20;3.90;;;26.90;99.90;;;;;;5114267;28;20437;-83
2021/07/05 11:40:48;;;;;;;5.07;4.77;;;27.30;99.90;;;;;;5115322;28;20462;-85
2021/07/05 11:43:18;;;;;;;4.90;4.60;;;27.50;99.90;;;;;;5115121;28;20437;-87
2021/07/05 11:45:48;;;;;;;4.67;4.37;;;27.60;99.90;;;;;;5115111;28;20441;-88
2021/07/05 11:48:53;;;;;;;4.67;4.33;;;27.70;99.90;;;;;;5104597;28;20500;-83
2021/07/05 11:51:23;;;;;;;4.50;4.20;;;27.70;99.90;;;;;;5112994;28;20491;-82
2021/07/05 11:53:51;;;;;;;5.00;4.50;;;27.90;99.90;;;;;;5113004;28;20438;-84
2021/07/05 11:56:38;;;;;;;4.70;4.40;;;28.20;99.90;;;;;;5114201;28;20477;-84
2021/07/05 11:59:07;;;;;;;4.30;4.00;;;28.40;99.90;;;;;;5113039;28;20445;-83
2021/07/05 12:01:35;;;;;;;4.47;4.00;;;28.60;99.90;;;;;;5112777;28;20507;-84
2021/07/05 12:04:03;;;;;;;4.10;3.90;;;28.90;99.90;;;;;;5112979;28;20485;-84
2021/07/05 12:06:30;;;;;;;4.40;4.10;;;29.10;99.90;;;;;;5112716;28;20457;-83
2021/07/05 12:08:59;;;;;;;3.70;3.40;;;29.10;99.90;;;;;;5112353;28;20528;-84
2021/07/05 12:11:36;;;;;;;2.80;2.70;;;29.20;99.90;;;;;;5106093;28;20445;-84
2021/07/05 12:14:04;;;;;;;3.77;3.57;;;29.20;99.90;;;;;;5102396;28;20512;-84
2021/07/05 12:16:31;;;;;;;3.70;3.40;;;29.10;99.90;;;;;;5112248;28;20534;-83
2021/07/05 12:18:58;;;;;;;3.90;3.60;;;29.10;99.90;;;;;;5113462;28;20534;-84
2021/07/05 12:21:31;;;;;;;3.37;3.17;;;29.20;99.90;;;;;;5109079;28;20951;-84
2021/07/05 12:24:09;;;;;;;3.43;3.23;;;29.20;99.90;;;;;;5113410;28;20862;-84
2021/07/05 12:26:46;;;;;;;3.97;3.67;;;29.30;99.90;;;;;;5113682;28;20445;-84
2021/07/05 12:29:16;;;;;;;2.87;2.77;;;29.20;99.90;;;;;;5111834;28;20449;-84
2021/07/05 12:32:01;;;;;;;3.37;3.10;;;29.20;99.90;;;;;;5111529;28;20802;-84
2021/07/05 12:34:49;;;;;;;3.20;3.00;;;29.10;99.90;;;;;;5111748;28;20441;-85
2021/07/05 12:37:19;;;;;;;3.30;3.00;;;29.10;99.90;;;;;;5113378;28;20477;-84
2021/07/05 12:39:50;;;;;;;4.13;3.00;;;29.00;99.90;;;;;;5105934;28;20533;-84
2021/07/05 12:42:27;;;;;;;4.20;4.00;;;29.00;99.90;;;;;;5113002;28;20838;-88
2021/07/05 12:44:54;;;;;;;5.13;3.30;;;28.80;99.90;;;;;;5098177;28;20477;-87
2021/07/05 12:47:22;;;;;;;3.53;3.23;;;28.70;99.90;;;;;;5114059;28;20511;-88
2021/07/05 12:49:49;;;;;;;3.50;3.30;;;28.70;99.90;;;;;;5111253;28;20464;-87